sensor_id;sensor_type;location;lat;lon;timestamp;pressure;altitude;pressure_sealevel;temperature;humidity
55191;BME280;41070;50.360;18.742;2023-02-10T02:16:57;100290.52;;;-3.41;71.29
55191;BME280;41070;50.360;18.742;2023-02-10T02:27:20;100285.38;;;-3.47;71.61
55191;BME280;41070;50.360;18.742;2023-02-10T03:35:12;100293.66;;;-3.78;71.32
55191;BME280;41070;50.360;18.742;2023-02-10T08:58:25;100442.41;;;-0.96;68.86
55191;BME280;41070;50.360;18.742;2023-02-10T09:28:12;100455.66;;;-0.39;67.36
55191;BME280;41070;50.360;18.742;2023-02-10T10:24:06;100441.40;;;1.26;64.91
55191;BME280;41070;50.360;18.742;2023-02-10T10:31:18;100449.69;;;1.10;64.30
55191;BME280;41070;50.360;18.742;2023-02-10T10:36:42;100449.14;;;0.98;64.40
55191;BME280;41070;50.360;18.742;2023-02-10T10:41:49;100448.10;;;0.96;64.65
55191;BME280;41070;50.360;18.742;2023-02-10T10:44:17;100448.84;;;0.97;64.57
55191;BME280;41070;50.360;18.742;2023-02-10T10:49:24;100449.16;;;0.91;64.56
55191;BME280;41070;50.360;18.742;2023-02-10T10:51:53;100449.35;;;0.88;64.98
55191;BME280;41070;50.360;18.742;2023-02-10T10:54:23;100442.89;;;0.84;64.58
55191;BME280;41070;50.360;18.742;2023-02-10T10:56:57;100444.15;;;0.82;64.96
55191;BME280;41070;50.360;18.742;2023-02-10T11:01:59;100431.38;;;0.86;65.06
55191;BME280;41070;50.360;18.742;2023-02-10T11:04:39;100422.81;;;0.91;64.83
55191;BME280;41070;50.360;18.742;2023-02-10T11:07:16;100424.30;;;0.93;64.80
55191;BME280;41070;50.360;18.742;2023-02-10T11:09:56;100427.15;;;0.90;64.72
55191;BME280;41070;50.360;18.742;2023-02-10T11:14:56;100428.58;;;0.82;64.25
55191;BME280;41070;50.360;18.742;2023-02-10T11:17:25;100428.30;;;0.79;64.79
55191;BME280;41070;50.360;18.742;2023-02-10T11:20:27;100427.29;;;0.75;65.12
55191;BME280;41070;50.360;18.742;2023-02-10T11:23:15;100425.70;;;0.71;64.56
55191;BME280;41070;50.360;18.742;2023-02-10T11:25:45;100422.52;;;0.70;64.80
55191;BME280;41070;50.360;18.742;2023-02-10T11:28:24;100426.10;;;0.65;64.26
55191;BME280;41070;50.360;18.742;2023-02-10T11:31:03;100430.11;;;0.63;64.74
55191;BME280;41070;50.360;18.742;2023-02-10T11:33:32;100429.01;;;0.63;64.78
55191;BME280;41070;50.360;18.742;2023-02-10T11:36:09;100418.50;;;0.62;64.81
55191;BME280;41070;50.360;18.742;2023-02-10T11:38:44;100419.58;;;0.60;64.87
55191;BME280;41070;50.360;18.742;2023-02-10T11:41:11;100419.42;;;0.60;65.43
55191;BME280;41070;50.360;18.742;2023-02-10T11:43:47;100416.13;;;0.61;64.80
55191;BME280;41070;50.360;18.742;2023-02-10T11:46:35;100414.75;;;0.61;65.06
55191;BME280;41070;50.360;18.742;2023-02-10T11:49:04;100412.67;;;0.63;65.51
55191;BME280;41070;50.360;18.742;2023-02-10T11:51:54;100409.89;;;0.63;64.94
55191;BME280;41070;50.360;18.742;2023-02-10T11:54:24;100410.38;;;0.61;65.12
55191;BME280;41070;50.360;18.742;2023-02-10T11:57:11;100409.63;;;0.60;65.57
55191;BME280;41070;50.360;18.742;2023-02-10T12:00:04;100411.34;;;0.54;65.62
55191;BME280;41070;50.360;18.742;2023-02-10T12:02:44;100419.63;;;0.50;65.53
55191;BME280;41070;50.360;18.742;2023-02-10T12:05:28;100415.36;;;0.45;65.21
55191;BME280;41070;50.360;18.742;2023-02-10T12:11:02;100415.13;;;0.47;66.22
55191;BME280;41070;50.360;18.742;2023-02-10T12:13:57;100415.92;;;0.52;66.12
55191;BME280;41070;50.360;18.742;2023-02-10T12:17:13;100414.36;;;0.60;66.08
55191;BME280;41070;50.360;18.742;2023-02-10T12:31:10;100410.16;;;1.03;66.07
55191;BME280;41070;50.360;18.742;2023-02-10T12:33:43;100417.04;;;1.10;65.55
55191;BME280;41070;50.360;18.742;2023-02-10T12:46:41;100427.25;;;1.46;65.27
55191;BME280;41070;50.360;18.742;2023-02-10T12:49:45;100427.39;;;1.51;64.92
55191;BME280;41070;50.360;18.742;2023-02-10T12:52:53;100429.94;;;1.57;65.06
55191;BME280;41070;50.360;18.742;2023-02-10T12:55:54;100428.66;;;1.60;65.02
55191;BME280;41070;50.360;18.742;2023-02-10T12:59:11;100417.71;;;1.65;65.06
55191;BME280;41070;50.360;18.742;2023-02-10T13:02:20;100423.71;;;1.70;65.05
55191;BME280;41070;50.360;18.742;2023-02-10T13:05:12;100432.60;;;1.65;63.73
55191;BME280;41070;50.360;18.742;2023-02-10T13:07:51;100427.70;;;1.53;63.50
55191;BME280;41070;50.360;18.742;2023-02-10T13:10:35;100422.20;;;1.47;64.16
55191;BME280;41070;50.360;18.742;2023-02-10T13:13:22;100422.00;;;1.42;64.08
55191;BME280;41070;50.360;18.742;2023-02-10T13:16:46;100432.90;;;1.31;64.47
55191;BME280;41070;50.360;18.742;2023-02-10T13:19:57;100445.09;;;1.15;63.67
55191;BME280;41070;50.360;18.742;2023-02-10T13:23:14;100434.81;;;0.99;64.38
55191;BME280;41070;50.360;18.742;2023-02-10T13:29:10;100439.92;;;0.96;65.16
55191;BME280;41070;50.360;18.742;2023-02-10T13:34:44;100439.64;;;0.95;65.16
55191;BME280;41070;50.360;18.742;2023-02-10T13:39:54;100441.35;;;0.96;65.86
55191;BME280;41070;50.360;18.742;2023-02-10T13:42:37;100436.46;;;0.95;66.22
55191;BME280;41070;50.360;18.742;2023-02-10T13:50:42;100445.61;;;0.88;66.49
55191;BME280;41070;50.360;18.742;2023-02-10T13:53:39;100444.91;;;0.84;66.76
55191;BME280;41070;50.360;18.742;2023-02-10T14:07:59;100444.60;;;0.79;68.33
55191;BME280;41070;50.360;18.742;2023-02-10T14:10:31;100450.05;;;0.81;68.74
55191;BME280;41070;50.360;18.742;2023-02-10T14:13:21;100452.79;;;0.81;68.78
55191;BME280;41070;50.360;18.742;2023-02-10T14:21:50;100448.91;;;0.87;69.46
55191;BME280;41070;50.360;18.742;2023-02-10T14:36:17;100451.69;;;0.88;70.47
55191;BME280;41070;50.360;18.742;2023-02-10T14:39:14;100451.66;;;0.90;70.34
55191;BME280;41070;50.360;18.742;2023-02-10T14:41:49;100451.66;;;0.90;70.02
55191;BME280;41070;50.360;18.742;2023-02-10T14:44:41;100452.34;;;0.90;70.22
55191;BME280;41070;50.360;18.742;2023-02-10T14:47:24;100452.95;;;0.91;70.09
55191;BME280;41070;50.360;18.742;2023-02-10T14:49:55;100457.36;;;0.91;70.40
55191;BME280;41070;50.360;18.742;2023-02-10T14:52:28;100451.44;;;0.89;70.59
55191;BME280;41070;50.360;18.742;2023-02-10T14:54:57;100454.30;;;0.90;70.39
55191;BME280;41070;50.360;18.742;2023-02-10T14:57:27;100456.57;;;0.90;70.59
55191;BME280;41070;50.360;18.742;2023-02-10T14:59:59;100455.89;;;0.90;70.79
55191;BME280;41070;50.360;18.742;2023-02-10T15:06:05;100452.91;;;0.89;70.43
55191;BME280;41070;50.360;18.742;2023-02-10T15:09:02;100453.05;;;0.88;70.95
55191;BME280;41070;50.360;18.742;2023-02-10T15:12:03;100455.02;;;0.86;70.79
55191;BME280;41070;50.360;18.742;2023-02-10T15:15:02;100449.67;;;0.83;70.96
55191;BME280;41070;50.360;18.742;2023-02-10T15:17:49;100450.28;;;0.79;70.86
55191;BME280;41070;50.360;18.742;2023-02-10T15:20:35;100450.66;;;0.74;70.96
55191;BME280;41070;50.360;18.742;2023-02-10T15:23:13;100449.73;;;0.70;70.96
55191;BME280;41070;50.360;18.742;2023-02-10T15:25:42;100451.58;;;0.66;71.16
55191;BME280;41070;50.360;18.742;2023-02-10T15:28:17;100451.93;;;0.60;71.42
55191;BME280;41070;50.360;18.742;2023-02-10T15:30:54;100449.88;;;0.55;71.22
55191;BME280;41070;50.360;18.742;2023-02-10T15:36:21;100448.98;;;0.46;71.56
55191;BME280;41070;50.360;18.742;2023-02-10T15:41:41;100462.13;;;0.37;71.21
55191;BME280;41070;50.360;18.742;2023-02-10T15:44:27;100463.50;;;0.35;70.84
55191;BME280;41070;50.360;18.742;2023-02-10T15:47:47;100465.61;;;0.33;71.17
55191;BME280;41070;50.360;18.742;2023-02-10T15:51:23;100467.52;;;0.31;70.84
55191;BME280;41070;50.360;18.742;2023-02-10T15:55:05;100470.28;;;0.30;71.18
55191;BME280;41070;50.360;18.742;2023-02-10T15:58:34;100472.02;;;0.30;70.89
55191;BME280;41070;50.360;18.742;2023-02-10T16:01:31;100468.39;;;0.30;71.03
55191;BME280;41070;50.360;18.742;2023-02-10T16:05:00;100471.82;;;0.30;71.20
55191;BME280;41070;50.360;18.742;2023-02-10T16:08:18;100478.96;;;0.32;71.16
55191;BME280;41070;50.360;18.742;2023-02-10T16:10:59;100479.45;;;0.30;71.15
55191;BME280;41070;50.360;18.742;2023-02-10T16:14:28;100482.02;;;0.31;71.09
55191;BME280;41070;50.360;18.742;2023-02-10T16:17:52;100478.63;;;0.30;71.45
55191;BME280;41070;50.360;18.742;2023-02-10T16:34:44;100472.20;;;0.22;71.32
55191;BME280;41070;50.360;18.742;2023-02-10T16:38:15;100473.76;;;0.18;71.53
55191;BME280;41070;50.360;18.742;2023-02-10T16:42:00;100478.73;;;0.15;72.14
55191;BME280;41070;50.360;18.742;2023-02-10T16:45:08;100484.73;;;0.13;72.44
55191;BME280;41070;50.360;18.742;2023-02-10T16:48:54;100490.20;;;0.11;72.33
55191;BME280;41070;50.360;18.742;2023-02-10T16:51:53;100487.48;;;0.07;72.08
55191;BME280;41070;50.360;18.742;2023-02-10T16:55:19;100485.77;;;0.04;72.19
55191;BME280;41070;50.360;18.742;2023-02-10T16:59:06;100484.97;;;0.01;72.52
55191;BME280;41070;50.360;18.742;2023-02-10T17:02:53;100491.99;;;-0.05;72.64
55191;BME280;41070;50.360;18.742;2023-02-10T17:05:51;100491.38;;;-0.04;72.48
55191;BME280;41070;50.360;18.742;2023-02-10T17:09:26;100492.38;;;-0.04;72.60
55191;BME280;41070;50.360;18.742;2023-02-10T17:12:33;100494.00;;;-0.05;72.87
55191;BME280;41070;50.360;18.742;2023-02-10T17:16:09;100499.98;;;-0.04;72.57
55191;BME280;41070;50.360;18.742;2023-02-10T17:19:22;100507.54;;;-0.04;72.81
55191;BME280;41070;50.360;18.742;2023-02-10T17:22:34;100505.88;;;-0.05;72.95
55191;BME280;41070;50.360;18.742;2023-02-10T17:26:01;100501.98;;;-0.03;73.34
55191;BME280;41070;50.360;18.742;2023-02-10T17:28:53;100499.92;;;-0.01;73.41
55191;BME280;41070;50.360;18.742;2023-02-10T17:35:17;100499.81;;;0.01;73.37
55191;BME280;41070;50.360;18.742;2023-02-10T17:38:32;100496.95;;;0.04;73.58
55191;BME280;41070;50.360;18.742;2023-02-10T17:41:52;100486.89;;;0.04;73.68
55191;BME280;41070;50.360;18.742;2023-02-10T17:48:29;100486.64;;;0.02;73.81
55191;BME280;41070;50.360;18.742;2023-02-10T17:55:43;100497.05;;;0.02;73.81
55191;BME280;41070;50.360;18.742;2023-02-10T18:02:30;100492.61;;;0.01;73.94
55191;BME280;41070;50.360;18.742;2023-02-10T18:14:41;100486.41;;;-0.07;74.04
55191;BME280;41070;50.360;18.742;2023-02-10T18:18:24;100491.45;;;-0.11;74.16
55191;BME280;41070;50.360;18.742;2023-02-10T18:31:42;100483.89;;;-0.24;74.22
55191;BME280;41070;50.360;18.742;2023-02-10T18:35:30;100478.48;;;-0.25;73.92
55191;BME280;41070;50.360;18.742;2023-02-10T18:38:58;100473.86;;;-0.27;73.98
55191;BME280;41070;50.360;18.742;2023-02-10T18:41:59;100470.02;;;-0.27;74.24
55191;BME280;41070;50.360;18.742;2023-02-10T18:58:09;100471.13;;;-0.27;74.44
55191;BME280;41070;50.360;18.742;2023-02-10T19:01:52;100470.47;;;-0.28;74.43
55191;BME280;41070;50.360;18.742;2023-02-10T19:05:49;100477.76;;;-0.27;74.50
55191;BME280;41070;50.360;18.742;2023-02-10T19:09:07;100476.14;;;-0.27;74.20
55191;BME280;41070;50.360;18.742;2023-02-10T19:13:05;100475.14;;;-0.28;74.45
55191;BME280;41070;50.360;18.742;2023-02-10T19:15:31;100478.46;;;-0.29;74.05
55191;BME280;41070;50.360;18.742;2023-02-10T19:17:58;100483.95;;;-0.29;74.23
55191;BME280;41070;50.360;18.742;2023-02-10T19:20:45;100490.77;;;-0.30;74.21
55191;BME280;41070;50.360;18.742;2023-02-10T19:23:53;100485.98;;;-0.31;73.93
55191;BME280;41070;50.360;18.742;2023-02-10T19:26:23;100482.86;;;-0.31;74.31
55191;BME280;41070;50.360;18.742;2023-02-10T19:29:07;100479.79;;;-0.31;74.35
55191;BME280;41070;50.360;18.742;2023-02-10T19:51:21;100490.92;;;-0.49;74.22
55191;BME280;41070;50.360;18.742;2023-02-10T19:54:50;100490.45;;;-0.54;74.67
55191;BME280;41070;50.360;18.742;2023-02-10T19:58:21;100488.20;;;-0.58;74.60
55191;BME280;41070;50.360;18.742;2023-02-10T20:00:48;100484.48;;;-0.60;74.57
55191;BME280;41070;50.360;18.742;2023-02-10T20:03:15;100480.52;;;-0.61;74.65
55191;BME280;41070;50.360;18.742;2023-02-10T20:05:41;100474.95;;;-0.62;74.91
55191;BME280;41070;50.360;18.742;2023-02-10T20:08:08;100474.71;;;-0.63;74.83
55191;BME280;41070;50.360;18.742;2023-02-10T20:10:34;100470.08;;;-0.65;75.05
55191;BME280;41070;50.360;18.742;2023-02-10T20:13:03;100467.20;;;-0.67;74.88
55191;BME280;41070;50.360;18.742;2023-02-10T20:15:35;100467.58;;;-0.68;75.15
55191;BME280;41070;50.360;18.742;2023-02-10T20:34:04;100466.55;;;-0.77;75.32
55191;BME280;41070;50.360;18.742;2023-02-10T20:36:59;100467.12;;;-0.77;75.26
55191;BME280;41070;50.360;18.742;2023-02-10T20:43:14;100462.52;;;-0.82;75.30
55191;BME280;41070;50.360;18.742;2023-02-10T20:45:44;100465.88;;;-0.84;75.40
55191;BME280;41070;50.360;18.742;2023-02-10T20:48:26;100469.37;;;-0.87;75.34
55191;BME280;41070;50.360;18.742;2023-02-10T20:56:57;100469.15;;;-0.99;75.31
55191;BME280;41070;50.360;18.742;2023-02-10T21:03:39;100472.38;;;-1.08;75.43
55191;BME280;41070;50.360;18.742;2023-02-10T21:08:40;100472.34;;;-1.16;75.17
55191;BME280;41070;50.360;18.742;2023-02-10T21:11:09;100467.00;;;-1.19;75.49
55191;BME280;41070;50.360;18.742;2023-02-10T21:13:36;100467.78;;;-1.21;75.50
55191;BME280;41070;50.360;18.742;2023-02-10T21:16:05;100468.07;;;-1.22;75.66
55191;BME280;41070;50.360;18.742;2023-02-10T21:18:31;100463.10;;;-1.23;75.83
55191;BME280;41070;50.360;18.742;2023-02-10T21:21:11;100461.70;;;-1.24;75.54
55191;BME280;41070;50.360;18.742;2023-02-10T21:23:58;100460.84;;;-1.26;75.66
55191;BME280;41070;50.360;18.742;2023-02-10T21:39:51;100451.66;;;-1.49;75.88
55191;BME280;41070;50.360;18.742;2023-02-10T21:42:18;100451.24;;;-1.51;75.74
55191;BME280;41070;50.360;18.742;2023-02-10T21:44:44;100449.54;;;-1.55;75.87
55191;BME280;41070;50.360;18.742;2023-02-10T21:47:22;100433.56;;;-1.61;75.90
55191;BME280;41070;50.360;18.742;2023-02-10T21:49:50;100432.14;;;-1.66;75.83
55191;BME280;41070;50.360;18.742;2023-02-10T21:52:17;100430.29;;;-1.69;75.88
55191;BME280;41070;50.360;18.742;2023-02-10T21:54:43;100426.27;;;-1.73;75.91
55191;BME280;41070;50.360;18.742;2023-02-10T21:57:12;100416.17;;;-1.77;75.98
55191;BME280;41070;50.360;18.742;2023-02-10T21:59:39;100414.05;;;-1.80;76.03
55191;BME280;41070;50.360;18.742;2023-02-10T22:02:10;100410.30;;;-1.83;76.08
55191;BME280;41070;50.360;18.742;2023-02-10T22:04:36;100409.69;;;-1.87;76.11
55191;BME280;41070;50.360;18.742;2023-02-10T22:07:03;100405.59;;;-1.90;76.22
55191;BME280;41070;50.360;18.742;2023-02-10T22:09:30;100400.05;;;-1.92;76.32
55191;BME280;41070;50.360;18.742;2023-02-10T22:12:00;100389.31;;;-1.94;76.34
55191;BME280;41070;50.360;18.742;2023-02-10T22:14:26;100380.54;;;-1.96;76.43
55191;BME280;41070;50.360;18.742;2023-02-10T22:16:53;100379.32;;;-2.00;76.28
55191;BME280;41070;50.360;18.742;2023-02-10T22:19:23;100380.60;;;-2.03;76.62
55191;BME280;41070;50.360;18.742;2023-02-10T22:21:50;100379.40;;;-2.04;76.55
55191;BME280;41070;50.360;18.742;2023-02-10T22:24:16;100377.83;;;-2.06;76.65
55191;BME280;41070;50.360;18.742;2023-02-10T22:26:49;100370.06;;;-2.08;76.61
55191;BME280;41070;50.360;18.742;2023-02-10T22:29:16;100371.58;;;-2.09;76.61
55191;BME280;41070;50.360;18.742;2023-02-10T22:31:43;100374.82;;;-2.11;76.64
55191;BME280;41070;50.360;18.742;2023-02-10T22:34:14;100376.24;;;-2.13;76.70
55191;BME280;41070;50.360;18.742;2023-02-10T22:36:40;100382.38;;;-2.13;76.62
55191;BME280;41070;50.360;18.742;2023-02-10T22:39:07;100375.41;;;-2.14;76.79
55191;BME280;41070;50.360;18.742;2023-02-10T22:41:33;100374.41;;;-2.16;76.79
55191;BME280;41070;50.360;18.742;2023-02-10T22:44:06;100375.72;;;-2.18;76.77
55191;BME280;41070;50.360;18.742;2023-02-10T22:46:32;100376.38;;;-2.19;76.85
55191;BME280;41070;50.360;18.742;2023-02-10T22:48:59;100374.20;;;-2.20;76.95
55191;BME280;41070;50.360;18.742;2023-02-10T22:51:29;100373.01;;;-2.21;76.87
55191;BME280;41070;50.360;18.742;2023-02-10T22:53:58;100377.20;;;-2.23;76.90
55191;BME280;41070;50.360;18.742;2023-02-10T22:56:27;100376.69;;;-2.23;77.14
55191;BME280;41070;50.360;18.742;2023-02-10T22:58:53;100378.88;;;-2.20;77.02
55191;BME280;41070;50.360;18.742;2023-02-10T23:01:35;100378.77;;;-2.20;77.09
55191;BME280;41070;50.360;18.742;2023-02-10T23:04:03;100378.07;;;-2.20;77.30
55191;BME280;41070;50.360;18.742;2023-02-10T23:14:43;100355.95;;;-2.29;77.15
55191;BME280;41070;50.360;18.742;2023-02-10T23:17:09;100354.41;;;-2.32;77.09
55191;BME280;41070;50.360;18.742;2023-02-10T23:19:36;100352.58;;;-2.35;77.13
55191;BME280;41070;50.360;18.742;2023-02-10T23:22:03;100351.50;;;-2.38;77.05
55191;BME280;41070;50.360;18.742;2023-02-10T23:24:33;100347.34;;;-2.40;77.15
55191;BME280;41070;50.360;18.742;2023-02-10T23:26:59;100343.34;;;-2.45;76.95
55191;BME280;41070;50.360;18.742;2023-02-10T23:29:26;100335.46;;;-2.49;76.83
55191;BME280;41070;50.360;18.742;2023-02-10T23:31:52;100329.76;;;-2.52;77.10
55191;BME280;41070;50.360;18.742;2023-02-10T23:34:19;100325.58;;;-2.60;77.01
55191;BME280;41070;50.360;18.742;2023-02-10T23:36:45;100322.54;;;-2.65;77.31
55191;BME280;41070;50.360;18.742;2023-02-10T23:39:12;100319.81;;;-2.71;77.01
55191;BME280;41070;50.360;18.742;2023-02-10T23:41:39;100316.59;;;-2.79;77.25
55191;BME280;41070;50.360;18.742;2023-02-10T23:44:06;100319.52;;;-2.82;77.55
55191;BME280;41070;50.360;18.742;2023-02-10T23:46:33;100318.65;;;-2.84;77.44
55191;BME280;41070;50.360;18.742;2023-02-10T23:49:00;100317.23;;;-2.88;77.56
55191;BME280;41070;50.360;18.742;2023-02-10T23:51:26;100312.77;;;-2.92;77.56
55191;BME280;41070;50.360;18.742;2023-02-10T23:53:52;100306.35;;;-2.97;77.60
55191;BME280;41070;50.360;18.742;2023-02-10T23:56:22;100303.94;;;-2.97;78.21
55191;BME280;41070;50.360;18.742;2023-02-10T23:58:48;100302.23;;;-2.96;78.11
